createdAt,value
2022-12-29T00:00:18.687Z,77.50
2022-12-29T00:03:07.420Z,77.47
2022-12-29T00:05:36.075Z,77.55
2022-12-29T00:08:04.885Z,77.41
2022-12-29T00:10:34.192Z,77.46
2022-12-29T00:13:21.351Z,77.37
2022-12-29T00:15:49.959Z,77.50
2022-12-29T00:18:19.649Z,77.44
2022-12-29T00:21:06.693Z,77.52
2022-12-29T00:23:56.269Z,77.59
2022-12-29T00:26:43.209Z,77.55
2022-12-29T00:29:30.308Z,77.45
2022-12-29T00:32:17.713Z,77.50
2022-12-29T00:35:05.733Z,77.49
2022-12-29T00:37:53.393Z,77.56
2022-12-29T00:40:40.439Z,77.53
2022-12-29T00:43:27.634Z,77.48
2022-12-29T00:45:56.516Z,77.60
2022-12-29T00:48:43.821Z,77.41
2022-12-29T00:51:12.361Z,77.50
2022-12-29T00:53:41.291Z,77.56
2022-12-29T00:56:09.711Z,77.58
2022-12-29T00:58:38.280Z,77.53
2022-12-29T01:01:08.773Z,77.64
2022-12-29T01:03:38.455Z,77.59
2022-12-29T01:06:09.511Z,77.64
2022-12-29T01:08:39.154Z,77.71
2022-12-29T01:11:10.561Z,77.40
2022-12-29T01:13:39.959Z,77.62
2022-12-29T01:16:08.828Z,77.75
2022-12-29T01:18:37.328Z,77.69
2022-12-29T01:21:07.503Z,77.36
2022-12-29T01:23:36.154Z,77.62
2022-12-29T01:26:15.376Z,77.58
2022-12-29T01:28:45.037Z,77.74
2022-12-29T01:31:15.589Z,77.69
2022-12-29T01:33:44.927Z,77.66
2022-12-29T01:36:16.362Z,77.70
2022-12-29T01:38:46.168Z,77.58
2022-12-29T01:41:16.762Z,77.59
2022-12-29T01:43:52.240Z,77.74
2022-12-29T01:46:37.519Z,77.54
2022-12-29T01:49:09.202Z,77.52
2022-12-29T01:51:54.857Z,77.73
2022-12-29T01:54:35.999Z,77.71
2022-12-29T01:57:09.522Z,77.61
2022-12-29T01:59:44.055Z,77.64
2022-12-29T02:02:13.314Z,77.56
2022-12-29T02:04:47.281Z,77.81
2022-12-29T02:07:22.665Z,77.82
2022-12-29T02:09:52.914Z,77.87
2022-12-29T02:12:23.727Z,77.69
2022-12-29T02:14:59.920Z,77.69
2022-12-29T02:17:46.058Z,77.58
2022-12-29T02:20:28.074Z,77.77
2022-12-29T02:22:59.613Z,77.58
2022-12-29T02:25:46.855Z,77.57
2022-12-29T02:28:34.877Z,77.63
2022-12-29T02:31:41.995Z,77.72
2022-12-29T02:34:38.536Z,77.89
2022-12-29T02:37:17.215Z,77.92
2022-12-29T02:40:24.045Z,77.86
2022-12-29T02:42:52.611Z,77.78
2022-12-29T02:45:40.112Z,77.44
2022-12-29T02:48:27.230Z,77.57
2022-12-29T02:51:10.608Z,77.60
2022-12-29T02:53:59.225Z,77.75
2022-12-29T02:56:28.354Z,77.68
2022-12-29T02:58:57.750Z,77.76
2022-12-29T03:02:05.205Z,77.73
2022-12-29T03:04:37.115Z,77.55
2022-12-29T03:07:29.054Z,77.51
2022-12-29T03:10:06.106Z,77.60
2022-12-29T03:13:06.182Z,77.76
2022-12-29T03:16:06.549Z,77.71
2022-12-29T03:18:51.639Z,77.83
2022-12-29T03:21:50.712Z,77.87
2022-12-29T03:24:23.645Z,77.75
2022-12-29T03:26:56.132Z,77.63
2022-12-29T03:29:26.604Z,77.56
2022-12-29T03:31:57.517Z,77.61
2022-12-29T03:34:27.618Z,77.67
2022-12-29T03:37:07.131Z,77.64
2022-12-29T03:39:36.344Z,77.76
2022-12-29T03:42:11.222Z,77.85
2022-12-29T03:44:42.737Z,77.75
2022-12-29T03:47:13.232Z,77.59
2022-12-29T03:49:42.337Z,77.78
2022-12-29T03:52:11.027Z,77.81
2022-12-29T03:54:43.321Z,77.87
2022-12-29T03:57:12.826Z,77.78
2022-12-29T03:59:51.810Z,77.78
2022-12-29T04:02:20.482Z,77.84
2022-12-29T04:04:49.334Z,77.95
2022-12-29T04:07:17.908Z,77.78
2022-12-29T04:09:46.925Z,77.79
2022-12-29T04:12:21.040Z,77.82
2022-12-29T04:14:49.606Z,77.83
2022-12-29T04:17:18.051Z,77.92
2022-12-29T04:19:48.434Z,77.92
2022-12-29T04:22:17.425Z,77.97
2022-12-29T04:24:47.299Z,78.00
2022-12-29T04:27:16.107Z,78.04
2022-12-29T04:30:06.347Z,78.00
2022-12-29T04:32:47.976Z,78.13
2022-12-29T04:35:16.757Z,77.95
2022-12-29T04:37:47.128Z,77.98
2022-12-29T04:40:15.665Z,78.01
2022-12-29T04:42:44.246Z,78.00
2022-12-29T04:45:16.569Z,78.09
2022-12-29T04:48:08.249Z,78.12
2022-12-29T04:50:55.172Z,78.03
2022-12-29T04:53:26.971Z,78.19
2022-12-29T04:55:56.196Z,78.14
2022-12-29T04:58:24.923Z,78.21
2022-12-29T05:00:54.482Z,78.23
2022-12-29T05:03:25.912Z,78.23
2022-12-29T05:05:56.287Z,78.23
2022-12-29T05:08:28.245Z,78.06
2022-12-29T05:10:59.435Z,78.12
2022-12-29T05:13:28.697Z,77.92
2022-12-29T05:15:57.305Z,77.94
2022-12-29T05:18:26.508Z,77.93
2022-12-29T05:20:56.144Z,77.96
2022-12-29T05:23:25.610Z,77.91
2022-12-29T05:25:59.065Z,78.01
2022-12-29T05:28:44.177Z,78.00
2022-12-29T05:31:15.715Z,77.85
2022-12-29T05:33:45.164Z,77.96
2022-12-29T05:36:14.878Z,77.96
2022-12-29T05:38:50.413Z,77.82
2022-12-29T05:41:20.284Z,77.93
2022-12-29T05:43:54.371Z,78.14
2022-12-29T05:46:32.739Z,77.87
2022-12-29T05:49:21.211Z,77.91
2022-12-29T05:51:57.557Z,77.91
2022-12-29T05:54:26.130Z,77.88
2022-12-29T05:56:54.808Z,77.89
2022-12-29T05:59:24.220Z,77.86
2022-12-29T06:01:54.374Z,77.77
2022-12-29T06:19:53.301Z,77.97
2022-12-29T06:22:22.502Z,77.81
2022-12-29T06:24:51.121Z,77.82
2022-12-29T06:27:19.779Z,77.90
2022-12-29T06:29:50.971Z,77.82
2022-12-29T06:32:19.657Z,77.82
2022-12-29T06:34:52.559Z,77.76
2022-12-29T06:37:21.161Z,77.77
2022-12-29T06:39:49.773Z,77.88
2022-12-29T06:42:18.552Z,77.98
2022-12-29T06:44:54.370Z,77.78
2022-12-29T06:47:23.146Z,77.84
2022-12-29T06:49:51.816Z,77.98
2022-12-29T06:52:20.444Z,77.99
2022-12-29T06:54:49.145Z,77.93
2022-12-29T06:57:17.730Z,77.98
2022-12-29T06:59:46.592Z,78.02
2022-12-29T07:02:16.080Z,77.69
2022-12-29T07:04:45.110Z,77.68
2022-12-29T07:07:13.624Z,77.71
2022-12-29T07:09:42.983Z,77.64
2022-12-29T07:12:11.456Z,77.63
2022-12-29T07:14:43.202Z,78.02
2022-12-29T07:17:12.318Z,77.93
2022-12-29T07:19:40.916Z,77.79
2022-12-29T07:22:10.700Z,77.75
2022-12-29T07:24:39.304Z,77.80
2022-12-29T07:27:07.833Z,77.87
2022-12-29T07:29:39.320Z,77.82
2022-12-29T07:32:08.038Z,77.85
2022-12-29T07:34:36.688Z,77.84
2022-12-29T07:37:05.214Z,77.79
2022-12-29T07:39:33.864Z,77.92
2022-12-29T07:42:05.050Z,77.89
2022-12-29T07:44:41.478Z,77.78
2022-12-29T07:47:35.428Z,77.88
2022-12-29T07:50:04.651Z,77.96
2022-12-29T07:52:33.265Z,77.84
2022-12-29T07:55:01.711Z,77.90
2022-12-29T07:57:32.359Z,78.06
2022-12-29T08:00:01.256Z,78.04
2022-12-29T08:02:30.848Z,77.87
2022-12-29T08:04:59.552Z,77.91
2022-12-29T08:07:28.188Z,77.84
2022-12-29T08:09:57.264Z,77.73
2022-12-29T08:12:25.849Z,77.61
2022-12-29T08:14:54.335Z,77.80
2022-12-29T08:17:22.826Z,77.99
2022-12-29T08:19:51.284Z,77.93
2022-12-29T08:22:19.842Z,77.74
2022-12-29T08:24:49.244Z,77.73
2022-12-29T08:27:21.009Z,77.85
2022-12-29T08:29:49.964Z,78.11
2022-12-29T08:32:19.312Z,77.98
